Time;durP1;ratioP1;P1;durP2;ratioP2;P2;SDS_P1;SDS_P2;PMS_P1;PMS_P2;Temp;Humidity;BMP_temperature;BMP_pressure;BME280_temperature;BME280_humidity;BME280_pressure;Samples;Min_cycle;Max_cycle;Signal;HPM_P1;HPM_P2
2023/04/04 00:00:51;;;;;;;21.40;11.90;;;;;;;-0.72;72.50;97655.35;108854;1252;94185;-71
2023/04/04 00:03:19;;;;;;;21.60;12.10;;;;;;;-0.71;72.43;97658.23;108823;1253;95541;-70
2023/04/04 00:05:48;;;;;;;24.40;11.70;;;;;;;-0.69;72.31;97659.81;108644;1251;110494;-71
2023/04/04 00:08:16;;;;;;;18.20;10.20;;;;;;;-0.66;72.41;97659.23;108651;1252;101820;-71
2023/04/04 00:10:44;;;;;;;20.40;10.40;;;;;;;-0.63;72.39;97659.48;108801;1253;99661;-69
2023/04/04 00:13:12;;;;;;;22.70;10.60;;;;;;;-0.60;72.39;97661.32;108860;1251;94226;-70
2023/04/04 00:15:40;;;;;;;24.80;11.90;;;;;;;-0.57;72.47;97659.27;108876;1252;94355;-71
2023/04/04 00:18:08;;;;;;;25.10;13.20;;;;;;;-0.54;72.54;97655.95;108856;1252;102430;-71
2023/04/04 00:20:36;;;;;;;30.20;14.90;;;;;;;-0.51;72.60;97656.64;108850;1253;101280;-71
2023/04/04 00:23:04;;;;;;;33.20;15.60;;;;;;;-0.48;72.68;97655.48;108822;1253;100108;-71
2023/04/04 00:25:33;;;;;;;32.40;15.40;;;;;;;-0.46;72.72;97654.34;108651;1253;94261;-69
2023/04/04 00:28:01;;;;;;;29.00;14.70;;;;;;;-0.45;72.81;97655.48;108881;1252;95179;-70
2023/04/04 00:30:30;;;;;;;31.20;15.10;;;;;;;-0.45;72.87;97660.48;108840;1252;102341;-70
2023/04/04 00:32:58;;;;;;;27.50;15.50;;;;;;;-0.46;72.90;97660.37;108858;1252;100196;-70
2023/04/04 00:35:26;;;;;;;31.90;16.30;;;;;;;-0.45;73.02;97660.27;108803;1253;100023;-72
2023/04/04 00:37:55;;;;;;;29.10;15.40;;;;;;;-0.43;73.09;97662.78;108861;1253;94329;-69
2023/04/04 00:40:23;;;;;;;33.40;16.70;;;;;;;-0.41;73.04;97661.39;108633;1253;94575;-71
2023/04/04 00:42:51;;;;;;;31.60;15.90;;;;;;;-0.44;73.04;97663.39;108832;1252;102237;-70
2023/04/04 00:45:20;;;;;;;31.50;16.90;;;;;;;-0.48;73.26;97659.86;108800;1252;101481;-70
2023/04/04 00:47:49;;;;;;;31.40;17.30;;;;;;;-0.49;73.26;97662.24;108664;1251;100987;-70
2023/04/04 00:50:17;;;;;;;29.90;17.00;;;;;;;-0.47;73.36;97661.34;108848;1252;94603;-70
2023/04/04 00:52:46;;;;;;;29.80;16.80;;;;;;;-0.45;73.38;97661.15;108867;1253;94793;-71
2023/04/04 00:55:14;;;;;;;34.00;15.90;;;;;;;-0.46;73.31;97662.13;108853;1252;110693;-69
2023/04/04 00:57:42;;;;;;;28.10;14.60;;;;;;;-0.49;73.17;97662.67;108668;1251;100624;-70
2023/04/04 01:00:12;;;;;;;21.20;10.20;;;;;;;-0.50;73.14;97661.84;108813;1252;98803;-70
2023/04/04 01:02:40;;;;;;;20.40;10.10;;;;;;;-0.51;72.66;97661.52;108797;1252;94256;-69
2023/04/04 01:05:09;;;;;;;21.80;10.40;;;;;;;-0.51;72.56;97661.18;108868;1252;94695;-70
2023/04/04 01:07:38;;;;;;;23.20;11.10;;;;;;;-0.58;72.08;97664.27;108819;1254;102005;-71
2023/04/04 01:10:06;;;;;;;25.60;12.30;;;;;;;-0.61;72.21;97669.86;108633;1253;102660;-70
2023/04/04 01:12:35;;;;;;;24.30;11.60;;;;;;;-0.56;72.52;97669.84;108826;1255;99957;-70
2023/04/04 01:15:03;;;;;;;20.70;11.00;;;;;;;-0.53;72.38;97670.98;108494;1253;94745;-70
2023/04/04 01:17:31;;;;;;;25.00;11.50;;;;;;;-0.57;72.23;97676.56;108883;1252;95078;-71
2023/04/04 01:20:06;;;;;;;23.20;11.00;;;;;;;-0.56;72.40;97675.25;108889;1253;102370;-71
2023/04/04 01:22:36;;;;;;;24.70;10.90;;;;;;;-0.52;72.50;97675.45;108822;1252;101222;-71
2023/04/04 01:25:07;;;;;;;19.20;10.50;;;;;;;-0.50;72.29;97670.99;108850;1252;99099;-70
2023/04/04 01:27:35;;;;;;;19.60;9.90;;;;;;;-0.48;72.16;97673.27;108824;1253;94170;-72
2023/04/04 01:30:04;;;;;;;20.30;11.70;;;;;;;-0.45;72.39;97673.94;108868;1252;94679;-69
2023/04/04 01:32:59;;;;;;;18.50;9.60;;;;;;;-0.43;72.45;97672.52;108645;1253;101896;-70
2023/04/04 01:35:46;;;;;;;22.80;11.40;;;;;;;-0.44;72.44;97672.20;108848;1253;101262;-71
2023/04/04 01:38:22;;;;;;;21.20;11.20;;;;;;;-0.45;72.27;97671.98;108796;1253;99908;-71
2023/04/04 01:40:55;;;;;;;22.20;11.60;;;;;;;-0.46;72.24;97675.05;108813;1253;94251;-71
2023/04/04 01:43:23;;;;;;;;;;;;;;;-0.45;72.15;97673.94;108692;1252;94373;-70
2023/04/04 01:45:51;;;;;;;19.40;10.60;;;;;;;-0.46;72.05;97673.15;108857;1252;102359;-70
2023/04/04 01:48:19;;;;;;;23.70;11.70;;;;;;;-0.45;72.09;97675.33;108873;1253;101330;-70
2023/04/04 01:50:48;;;;;;;22.70;11.20;;;;;;;-0.43;72.13;97674.98;108789;1252;99637;-71
2023/04/04 01:53:16;;;;;;;24.30;11.90;;;;;;;-0.42;72.14;97668.90;108858;1253;94227;-70
2023/04/04 01:55:44;;;;;;;21.70;11.30;;;;;;;-0.42;72.06;97671.33;108714;1252;95185;-70
2023/04/04 01:58:12;;;;;;;23.50;12.00;;;;;;;-0.40;72.16;97678.10;108831;1252;102377;-72
2023/04/04 02:00:40;;;;;;;23.70;12.00;;;;;;;-0.39;72.07;97672.46;108847;1253;101505;-71
2023/04/04 02:03:08;;;;;;;21.70;11.60;;;;;;;-0.40;72.09;97675.05;108861;1251;100114;-69
2023/04/04 02:05:36;;;;;;;27.80;13.70;;;;;;;-0.40;72.06;97671.20;108781;1252;94216;-71
2023/04/04 02:08:04;;;;;;;21.30;11.50;;;;;;;-0.39;71.88;97670.23;108880;1252;94544;-69
2023/04/04 02:10:32;;;;;;;22.70;11.60;;;;;;;-0.41;71.78;97667.52;108807;1253;102277;-71
2023/04/04 02:13:00;;;;;;;18.40;10.00;;;;;;;-0.42;71.76;97666.02;108808;1253;101087;-70
2023/04/04 02:15:29;;;;;;;19.70;10.50;;;;;;;-0.41;71.71;97667.06;108798;1253;99729;-71
2023/04/04 02:17:57;;;;;;;20.20;10.50;;;;;;;-0.42;71.67;97667.27;108866;1253;94275;-70
2023/04/04 02:20:25;;;;;;;15.50;8.00;;;;;;;-0.47;71.55;97666.34;108820;1251;95094;-69
2023/04/04 02:22:54;;;;;;;15.30;8.30;;;;;;;-0.50;71.32;97664.88;108521;1253;100227;-71
2023/04/04 02:25:24;;;;;;;12.80;7.60;;;;;;;-0.52;71.26;97664.80;108821;1253;101452;-71
2023/04/04 02:27:52;;;;;;;15.80;7.90;;;;;;;-0.53;71.04;97663.13;108828;1253;99959;-72
2023/04/04 02:30:20;;;;;;;13.30;8.00;;;;;;;-0.53;70.96;97665.50;108646;1253;94221;-70
2023/04/04 02:32:49;;;;;;;17.70;8.00;;;;;;;-0.53;70.94;97667.04;108840;1252;95639;-71
2023/04/04 02:35:17;;;;;;;14.60;8.00;;;;;;;-0.54;70.92;97668.77;108817;1255;102459;-70
2023/04/04 02:37:47;;;;;;;13.10;7.50;;;;;;;-0.58;70.89;97669.05;108681;1252;101532;-71
2023/04/04 02:40:15;;;;;;;13.80;8.10;;;;;;;-0.60;70.93;97669.48;108802;1252;100104;-70
2023/04/04 02:42:44;;;;;;;12.80;7.80;;;;;;;-0.62;71.02;97665.20;108826;1252;94209;-71
2023/04/04 02:45:13;;;;;;;15.00;7.80;;;;;;;-0.62;70.99;97662.70;108858;1252;94405;-72
2023/04/04 02:47:42;;;;;;;20.30;8.50;;;;;;;-0.62;71.05;97662.19;108846;1253;101930;-70
2023/04/04 02:50:11;;;;;;;13.80;7.60;;;;;;;-0.62;71.08;97660.41;108830;1253;101099;-72
2023/04/04 02:52:39;;;;;;;17.90;8.00;;;;;;;-0.62;71.09;97662.41;108498;1252;99608;-71
2023/04/04 02:55:08;;;;;;;15.00;7.90;;;;;;;-0.63;71.12;97662.30;108803;1253;95754;-71
2023/04/04 02:57:36;;;;;;;14.10;7.50;;;;;;;-0.64;70.94;97662.16;108659;1254;94728;-71
2023/04/04 03:00:05;;;;;;;15.60;7.50;;;;;;;-0.64;70.89;97656.74;108680;1252;100255;-70
2023/04/04 03:02:33;;;;;;;15.10;8.40;;;;;;;-0.66;70.97;97655.86;108804;1253;101314;-70
2023/04/04 03:05:02;;;;;;;16.00;8.30;;;;;;;-0.66;71.00;97658.70;108799;1252;98905;-71
2023/04/04 03:07:30;;;;;;;15.50;8.20;;;;;;;-0.66;70.87;97660.97;108586;1253;94360;-70
2023/04/04 03:09:58;;;;;;;15.20;8.80;;;;;;;-0.66;70.83;97657.26;108831;1252;94501;-71
2023/04/04 03:12:27;;;;;;;14.20;8.20;;;;;;;-0.66;70.72;97657.80;108864;1253;102406;-71
2023/04/04 03:14:55;;;;;;;13.00;8.30;;;;;;;-0.68;70.56;97655.63;108804;1252;101421;-70
2023/04/04 03:17:23;;;;;;;18.70;8.80;;;;;;;-0.70;70.48;97655.12;108847;1253;100030;-71
2023/04/04 03:19:51;;;;;;;14.00;8.50;;;;;;;-0.71;70.46;97654.69;108825;1253;94277;-70
2023/04/04 03:22:19;;;;;;;13.90;8.60;;;;;;;-0.70;70.49;97650.02;108847;1252;94541;-71
2023/04/04 03:24:47;;;;;;;13.40;8.80;;;;;;;-0.67;70.57;97647.29;108829;1253;102648;-72
2023/04/04 03:27:16;;;;;;;18.10;8.60;;;;;;;-0.69;70.44;97641.79;108812;1253;101127;-72
2023/04/04 03:29:44;;;;;;;17.30;8.90;;;;;;;-0.71;70.36;97641.39;108798;1254;99908;-71
2023/04/04 03:32:12;;;;;;;15.80;9.10;;;;;;;-0.76;70.41;97637.98;108625;1253;94424;-70
2023/04/04 03:34:40;;;;;;;15.40;9.40;;;;;;;-0.79;70.52;97636.27;108834;1254;94721;-71
2023/04/04 03:37:08;;;;;;;18.00;10.20;;;;;;;-0.82;70.44;97635.30;108837;1253;101974;-71
2023/04/04 03:39:37;;;;;;;17.40;9.60;;;;;;;-0.85;70.43;97630.34;108806;1255;101189;-72
2023/04/04 03:42:05;;;;;;;16.70;10.10;;;;;;;-0.87;70.51;97631.23;108743;1253;100268;-71
2023/04/04 03:44:33;;;;;;;17.60;10.00;;;;;;;-0.93;70.55;97629.75;108741;1252;94266;-71
2023/04/04 03:47:01;;;;;;;15.90;9.00;;;;;;;-1.00;70.59;97629.03;108855;1253;94687;-70
2023/04/04 03:49:31;;;;;;;17.70;9.20;;;;;;;-1.04;70.55;97627.11;108782;1252;102378;-70
2023/04/04 03:52:01;;;;;;;17.60;10.00;;;;;;;-1.05;70.64;97626.27;108839;1253;101394;-70
2023/04/04 03:54:29;;;;;;;17.10;10.50;;;;;;;-1.09;70.71;97624.84;108701;1254;98985;-71
2023/04/04 03:56:58;;;;;;;16.20;9.60;;;;;;;-1.10;70.77;97627.75;108783;1252;94200;-72
2023/04/04 03:59:26;;;;;;;16.10;9.40;;;;;;;-1.09;70.81;97629.55;108821;1253;94686;-70
2023/04/04 04:01:54;;;;;;;14.90;8.70;;;;;;;-1.09;70.66;97631.14;108518;1254;102390;-70
2023/04/04 04:04:22;;;;;;;16.30;9.00;;;;;;;-1.09;70.78;97628.86;108517;1252;101626;-70
2023/04/04 04:06:50;;;;;;;18.10;10.00;;;;;;;-1.09;70.87;97632.76;108782;1253;100492;-71
2023/04/04 04:09:18;;;;;;;17.20;10.20;;;;;;;-1.07;70.87;97632.09;108764;1252;94177;-70
2023/04/04 04:11:47;;;;;;;16.00;9.60;;;;;;;-1.04;70.88;97629.56;108824;1252;94661;-70
2023/04/04 04:14:15;;;;;;;17.90;10.00;;;;;;;-1.04;70.94;97628.48;108830;1252;102177;-70
2023/04/04 04:16:43;;;;;;;20.70;11.00;;;;;;;-1.03;71.17;97629.45;108788;1252;100649;-70
2023/04/04 04:19:11;;;;;;;18.80;10.80;;;;;;;-1.05;71.23;97627.81;108766;1251;99692;-71
2023/04/04 04:21:39;;;;;;;15.10;9.50;;;;;;;-1.08;71.19;97623.98;108729;1252;94218;-70
2023/04/04 04:24:08;;;;;;;15.40;9.80;;;;;;;-1.08;71.08;97627.73;108839;1253;94603;-72
2023/04/04 04:26:36;;;;;;;16.80;9.80;;;;;;;-1.04;71.26;97631.89;108784;1252;102369;-71
2023/04/04 04:29:04;;;;;;;16.90;10.20;;;;;;;-1.03;71.27;97630.30;108787;1254;101560;-69
2023/04/04 04:31:33;;;;;;;19.50;11.00;;;;;;;-0.99;71.35;97626.28;108631;1254;100168;-70
2023/04/04 04:34:02;;;;;;;15.80;10.20;;;;;;;-0.97;71.29;97628.38;108721;1253;94505;-70
2023/04/04 04:36:30;;;;;;;18.80;10.30;;;;;;;-0.98;71.12;97623.50;108779;1253;95212;-69
2023/04/04 04:38:58;;;;;;;19.50;10.20;;;;;;;-0.96;71.24;97623.90;108621;1258;102325;-71
2023/04/04 04:41:26;;;;;;;17.10;10.20;;;;;;;-0.96;71.40;97625.16;108776;1253;101426;-70
2023/04/04 04:43:55;;;;;;;19.50;10.30;;;;;;;-0.97;71.37;97621.69;108626;1252;100995;-70
2023/04/04 04:46:23;;;;;;;16.00;10.80;;;;;;;-0.95;71.27;97626.98;108774;1253;94196;-70
2023/04/04 04:48:51;;;;;;;17.50;10.00;;;;;;;-0.92;71.25;97626.54;108776;1253;94737;-69
2023/04/04 04:51:19;;;;;;;17.90;9.30;;;;;;;-0.90;71.22;97627.59;108636;1253;101207;-72
2023/04/04 04:53:47;;;;;;;13.20;8.90;;;;;;;-0.89;71.10;97629.83;108772;1253;101519;-72
2023/04/04 04:56:15;;;;;;;18.30;10.10;;;;;;;-0.94;71.08;97629.30;108735;1253;99707;-72
2023/04/04 04:58:46;;;;;;;19.70;10.30;;;;;;;-1.06;70.88;97630.60;108796;1253;94580;-72
2023/04/04 05:01:14;;;;;;;18.00;9.40;;;;;;;-1.15;71.00;97637.50;108805;1254;95664;-70
2023/04/04 05:03:42;;;;;;;17.40;9.60;;;;;;;-1.18;71.12;97640.99;108745;1252;102486;-70
2023/04/04 05:06:11;;;;;;;15.70;9.60;;;;;;;-1.16;71.24;97641.12;108839;1254;101108;-71
2023/04/04 05:08:39;;;;;;;16.10;10.00;;;;;;;-1.12;71.29;97638.33;108729;1252;99953;-70
2023/04/04 05:11:07;;;;;;;17.00;9.50;;;;;;;-1.09;71.54;97637.56;108743;1254;94353;-71
2023/04/04 05:13:35;;;;;;;16.20;9.20;;;;;;;-1.05;71.54;97637.42;108643;1256;94770;-71
2023/04/04 05:16:04;;;;;;;17.50;10.20;;;;;;;-1.01;71.72;97635.64;108717;1253;101371;-71
2023/04/04 05:18:32;;;;;;;16.50;9.80;;;;;;;-1.02;71.54;97639.28;108633;1252;101656;-72
2023/04/04 05:21:00;;;;;;;18.40;9.70;;;;;;;-1.04;71.61;97637.09;108679;1253;100287;-71
2023/04/04 05:23:28;;;;;;;19.70;11.10;;;;;;;-1.03;71.68;97636.33;108744;1253;94267;-72
2023/04/04 05:25:56;;;;;;;24.50;10.80;;;;;;;-1.03;71.60;97638.27;108718;1252;94649;-71
2023/04/04 05:28:25;;;;;;;16.70;10.60;;;;;;;-0.98;71.72;97643.17;108812;1252;102006;-72
2023/04/04 05:30:53;;;;;;;16.80;10.70;;;;;;;-0.94;71.78;97639.58;108750;1254;101434;-70
2023/04/04 05:33:22;;;;;;;14.80;9.90;;;;;;;-0.90;71.61;97641.55;108769;1253;99852;-69
2023/04/04 05:35:50;;;;;;;19.00;10.90;;;;;;;-0.85;71.70;97645.34;108743;1253;94232;-70
2023/04/04 05:38:18;;;;;;;17.50;11.20;;;;;;;-0.80;71.60;97648.61;108800;1252;94610;-71
2023/04/04 05:40:47;;;;;;;20.60;11.50;;;;;;;-0.75;71.58;97649.38;108779;1253;102112;-70
2023/04/04 05:43:15;;;;;;;18.70;10.80;;;;;;;-0.70;71.61;97648.40;108742;1253;101021;-71
2023/04/04 05:45:43;;;;;;;18.80;11.40;;;;;;;-0.65;71.54;97652.89;108532;1253;108111;-70
2023/04/04 05:48:11;;;;;;;23.80;12.10;;;;;;;-0.60;71.47;97656.02;108763;1253;94411;-70
2023/04/04 05:50:39;;;;;;;23.70;12.40;;;;;;;-0.56;71.41;97656.48;108762;1253;95189;-71
2023/04/04 05:53:07;;;;;;;16.80;11.00;;;;;;;-0.53;71.28;97658.89;108768;1252;101899;-70
2023/04/04 05:55:35;;;;;;;21.80;10.60;;;;;;;-0.51;71.39;97658.33;108498;1253;101065;-71
2023/04/04 05:58:03;;;;;;;15.30;9.70;;;;;;;-0.44;71.50;97658.13;108737;1253;99824;-71
2023/04/04 06:00:31;;;;;;;16.50;10.00;;;;;;;-0.40;71.12;97658.05;108732;1252;94440;-71
2023/04/04 06:03:00;;;;;;;13.80;9.30;;;;;;;-0.41;70.84;97659.97;108798;1253;94615;-70
2023/04/04 06:05:28;;;;;;;14.90;10.20;;;;;;;-0.40;70.80;97662.33;108793;1254;102125;-71
2023/04/04 06:07:56;;;;;;;15.90;10.20;;;;;;;-0.35;70.85;97660.70;108739;1252;101311;-70
2023/04/04 06:10:24;;;;;;;20.10;12.10;;;;;;;-0.29;71.03;97657.11;108728;1252;100116;-71
2023/04/04 06:12:52;;;;;;;18.90;10.90;;;;;;;-0.22;71.05;97659.45;108732;1254;94174;-70
2023/04/04 06:15:20;;;;;;;16.50;9.90;;;;;;;-0.18;70.98;97660.89;108787;1252;94592;-70
2023/04/04 06:17:49;;;;;;;14.00;9.20;;;;;;;-0.13;70.90;97657.77;108735;1253;102499;-70
2023/04/04 06:20:18;;;;;;;15.40;9.80;;;;;;;-0.07;70.69;97655.11;108782;1253;101194;-70
2023/04/04 06:22:46;;;;;;;15.60;9.10;;;;;;;-0.04;70.48;97655.52;108727;1253;99548;-72
2023/04/04 06:25:14;;;;;;;15.20;9.30;;;;;;;-0.03;70.32;97658.79;108731;1252;94172;-72
2023/04/04 06:27:42;;;;;;;13.20;9.20;;;;;;;-0.02;70.29;97656.25;108593;1253;94693;-71
2023/04/04 06:30:13;;;;;;;15.00;9.10;;;;;;;0.03;70.45;97656.99;108755;1253;102332;-69
2023/04/04 06:32:41;;;;;;;15.20;8.90;;;;;;;0.09;70.34;97653.87;108735;1252;101071;-71
2023/04/04 06:35:10;;;;;;;18.20;9.50;;;;;;;0.11;70.11;97650.79;108663;1253;101281;-71
2023/04/04 06:37:38;;;;;;;14.80;9.00;;;;;;;0.14;70.07;97649.46;108759;1254;94208;-71
2023/04/04 06:40:07;;;;;;;15.90;9.40;;;;;;;0.16;69.99;97648.71;108763;1253;94535;-71
2023/04/04 06:42:35;;;;;;;14.60;9.40;;;;;;;0.14;69.79;97650.86;108762;1252;110726;-70
2023/04/04 06:45:03;;;;;;;12.20;7.40;;;;;;;0.17;69.83;97650.29;108774;1252;101288;-71
2023/04/04 06:47:32;;;;;;;13.90;8.00;;;;;;;0.16;69.36;97640.22;108662;1252;99821;-71
2023/04/04 06:50:01;;;;;;;14.80;7.90;;;;;;;0.15;69.24;97640.72;108771;1253;94214;-70
2023/04/04 06:52:29;;;;;;;14.00;7.90;;;;;;;0.17;69.37;97639.64;108757;1252;94733;-70
2023/04/04 06:54:57;;;;;;;17.50;8.70;;;;;;;0.23;69.48;97639.46;108808;1253;102095;-71
2023/04/04 06:57:25;;;;;;;14.50;7.90;;;;;;;0.27;69.45;97637.08;108801;1251;101104;-70
2023/04/04 06:59:54;;;;;;;12.20;8.10;;;;;;;0.30;69.01;97636.80;108641;1253;99958;-70
2023/04/04 07:02:22;;;;;;;20.30;10.00;;;;;;;0.35;69.11;97634.59;108757;1253;94273;-71
2023/04/04 07:04:50;;;;;;;14.30;8.90;;;;;;;0.45;69.33;97638.06;108681;1252;95227;-69
2023/04/04 07:07:19;;;;;;;14.80;8.80;;;;;;;0.60;69.51;97636.35;108684;1252;102357;-70
2023/04/04 07:09:47;;;;;;;14.60;8.80;;;;;;;0.72;69.46;97642.77;108811;1253;101377;-70
2023/04/04 07:12:15;;;;;;;12.70;8.50;;;;;;;0.78;69.22;97637.65;108769;1253;99975;-71
2023/04/04 07:14:43;;;;;;;14.80;8.50;;;;;;;0.79;68.89;97639.36;108697;1253;94448;-71
2023/04/04 07:17:11;;;;;;;12.60;8.80;;;;;;;0.79;68.78;97641.11;108748;1251;94608;-71
2023/04/04 07:19:39;;;;;;;14.60;8.60;;;;;;;0.80;68.69;97640.27;108598;1253;101785;-70
2023/04/04 07:22:07;;;;;;;17.10;8.50;;;;;;;0.84;68.91;97642.92;108764;1252;101296;-72
2023/04/04 07:24:36;;;;;;;17.00;9.60;;;;;;;0.90;68.86;97644.27;108729;1253;99872;-70
2023/04/04 07:27:04;;;;;;;13.80;8.10;;;;;;;0.93;68.37;97643.26;108698;1252;94548;-70
2023/04/04 07:29:32;;;;;;;10.80;7.80;;;;;;;0.97;68.30;97644.45;108754;1252;94461;-70
2023/04/04 07:32:00;;;;;;;11.80;8.30;;;;;;;1.09;68.30;97640.83;108662;1254;103477;-70
2023/04/04 07:34:29;;;;;;;13.40;7.70;;;;;;;1.19;68.13;97640.09;108787;1252;100049;-70
2023/04/04 07:36:57;;;;;;;14.70;8.20;;;;;;;1.27;68.03;97641.42;108743;1252;100302;-72
2023/04/04 07:39:25;;;;;;;13.70;8.40;;;;;;;1.32;67.89;97646.46;108729;1252;94224;-70
2023/04/04 07:41:53;;;;;;;11.90;7.50;;;;;;;1.34;67.69;97649.58;108706;1253;94730;-71
2023/04/04 07:44:22;;;;;;;14.50;7.60;;;;;;;1.36;67.74;97650.08;108572;1252;102082;-70
2023/04/04 07:46:50;;;;;;;14.10;7.60;;;;;;;1.39;67.60;97652.89;108642;1252;213756;-71
2023/04/04 07:49:18;;;;;;;16.00;8.50;;;;;;;1.42;67.65;97649.05;108718;1252;100036;-71
2023/04/04 07:51:47;;;;;;;11.40;7.90;;;;;;;1.47;67.63;97649.77;108726;1252;94248;-70
2023/04/04 07:54:16;;;;;;;11.80;7.40;;;;;;;1.52;67.46;97652.99;108762;1252;94728;-72
2023/04/04 07:56:45;;;;;;;14.40;7.10;;;;;;;1.54;67.09;97651.95;108758;1252;102300;-70
2023/04/04 07:59:13;;;;;;;19.10;8.20;;;;;;;1.55;66.97;97648.47;108689;1253;101431;-71
2023/04/04 08:01:41;;;;;;;15.10;7.90;;;;;;;1.53;66.94;97648.45;108785;1252;99869;-71
2023/04/04 08:04:09;;;;;;;14.10;7.10;;;;;;;1.60;66.93;97649.38;108734;1252;94174;-71
2023/04/04 08:06:38;;;;;;;12.20;8.00;;;;;;;1.66;66.79;97647.14;108792;1252;94485;-71
2023/04/04 08:09:06;;;;;;;14.20;8.00;;;;;;;1.66;66.58;97641.16;108767;1252;102342;-70
2023/04/04 08:11:35;;;;;;;16.50;7.00;;;;;;;1.66;66.61;97643.83;108792;1252;100854;-71
2023/04/04 08:14:03;;;;;;;9.30;7.30;;;;;;;1.75;66.77;97645.36;108761;1252;99723;-71
2023/04/04 08:16:32;;;;;;;13.00;7.70;;;;;;;1.89;66.79;97647.20;108724;1252;94206;-71
2023/04/04 08:19:02;;;;;;;13.80;8.20;;;;;;;2.02;66.58;97648.97;108730;1252;94954;-71
2023/04/04 08:21:31;;;;;;;13.40;8.00;;;;;;;2.09;66.14;97644.84;108786;1252;102321;-70
2023/04/04 08:23:59;;;;;;;10.80;7.10;;;;;;;2.13;66.01;97640.55;108725;1252;101284;-71
2023/04/04 08:26:28;;;;;;;11.20;7.20;;;;;;;2.26;66.32;97639.65;108733;1252;100184;-70
2023/04/04 08:28:56;;;;;;;11.20;7.40;;;;;;;2.37;66.15;97640.64;108683;1252;94337;-71
2023/04/04 08:31:24;;;;;;;10.40;6.70;;;;;;;2.47;65.90;97642.95;108767;1252;94675;-70
2023/04/04 08:33:52;;;;;;;12.40;7.70;;;;;;;2.47;65.32;97640.99;108739;1252;102141;-71
2023/04/04 08:36:21;;;;;;;11.80;7.50;;;;;;;2.38;64.83;97638.41;108558;1253;100700;-71
2023/04/04 08:38:50;;;;;;;11.40;7.10;;;;;;;2.36;65.05;97633.84;108735;1252;108528;-71
2023/04/04 08:41:18;;;;;;;15.50;8.30;;;;;;;2.40;65.43;97632.44;108702;1251;94344;-71
2023/04/04 08:43:53;;;;;;;12.70;7.50;;;;;;;2.49;65.54;97635.81;108795;1252;94603;-71
2023/04/04 08:46:26;;;;;;;11.50;6.90;;;;;;;2.43;64.79;97639.13;108735;1252;101848;-71
2023/04/04 08:48:57;;;;;;;17.70;7.80;;;;;;;2.32;64.75;97641.16;108787;1252;100612;-72
2023/04/04 08:51:26;;;;;;;12.90;7.40;;;;;;;2.29;64.79;97640.00;108721;1252;99516;-72
2023/04/04 08:53:55;;;;;;;11.00;6.60;;;;;;;2.25;64.83;97638.78;108778;1251;94147;-71
2023/04/04 08:56:24;;;;;;;15.40;9.00;;;;;;;2.26;65.10;97639.80;108823;1251;94300;-70
2023/04/04 08:58:52;;;;;;;13.40;8.90;;;;;;;2.36;65.27;97639.11;108740;1252;102313;-71
2023/04/04 09:01:22;;;;;;;12.20;7.70;;;;;;;2.47;65.33;97640.15;108413;1252;100340;-70
2023/04/04 09:03:52;;;;;;;10.40;6.70;;;;;;;2.70;65.58;97635.85;108568;1253;98527;-72
2023/04/04 09:06:21;;;;;;;11.00;6.30;;;;;;;3.10;65.51;97625.26;108707;1252;94243;-70
2023/04/04 09:08:50;;;;;;;13.40;6.40;;;;;;;3.45;65.24;97625.17;108762;1252;94704;-72
2023/04/04 09:11:20;;;;;;;9.50;6.20;;;;;;;3.55;64.61;97623.87;108777;1252;111889;-72
2023/04/04 09:13:51;;;;;;;8.40;6.20;;;;;;;3.56;64.26;97625.04;108781;1253;101307;-72
2023/04/04 09:16:19;;;;;;;11.40;5.80;;;;;;;3.56;63.31;97627.73;108722;1253;99838;-71
2023/04/04 09:18:47;;;;;;;12.20;6.30;;;;;;;3.55;63.40;97631.04;108742;1253;94248;-72
2023/04/04 09:21:15;;;;;;;11.00;5.40;;;;;;;3.57;63.04;97629.21;108707;1253;95187;-70
2023/04/04 09:23:43;;;;;;;8.90;6.30;;;;;;;3.46;62.42;97628.20;108784;1253;102105;-71
2023/04/04 09:26:12;;;;;;;14.50;6.30;;;;;;;3.39;63.00;97622.96;108730;1253;101474;-72
2023/04/04 09:28:40;;;;;;;7.40;5.10;;;;;;;3.43;63.25;97618.08;108695;1253;100163;-71
2023/04/04 09:31:09;;;;;;;11.90;5.40;;;;;;;3.38;62.01;97613.27;108751;1252;94382;-72
2023/04/04 09:33:38;;;;;;;9.50;6.30;;;;;;;3.28;62.06;97610.38;108774;1253;94623;-72
2023/04/04 09:36:09;;;;;;;10.90;6.40;;;;;;;3.33;62.14;97614.55;108778;1253;102604;-71
2023/04/04 09:38:39;;;;;;;10.30;5.20;;;;;;;3.52;62.34;97617.14;108532;1253;101546;-70
2023/04/04 09:41:09;;;;;;;9.20;6.40;;;;;;;3.83;62.64;97612.92;108712;1253;99763;-70
2023/04/04 09:43:40;;;;;;;8.40;5.60;;;;;;;4.13;62.48;97610.19;108725;1253;94302;-71
2023/04/04 09:46:08;;;;;;;6.80;5.10;;;;;;;4.34;61.55;97608.26;108746;1253;94660;-71
2023/04/04 09:48:36;;;;;;;8.60;5.10;;;;;;;4.28;60.13;97606.95;108628;1253;102195;-70
2023/04/04 09:51:06;;;;;;;6.20;4.60;;;;;;;4.10;59.66;97608.05;108787;1253;101374;-72
2023/04/04 09:53:37;;;;;;;6.50;4.50;;;;;;;4.05;59.69;97608.02;108760;1252;100008;-71
2023/04/04 09:56:06;;;;;;;8.00;4.30;;;;;;;4.06;59.49;97614.93;108782;1252;94194;-71
2023/04/04 09:58:35;;;;;;;7.10;4.10;;;;;;;4.03;58.67;97613.25;108586;1253;94299;-71
2023/04/04 10:01:08;;;;;;;7.70;4.30;;;;;;;4.17;59.17;97602.81;108706;1252;101870;-71
2023/04/04 10:03:38;;;;;;;7.50;4.40;;;;;;;4.43;59.32;97602.48;108755;1253;101674;-72
2023/04/04 10:06:08;;;;;;;9.30;5.00;;;;;;;4.76;60.37;97601.07;108730;1253;99519;-71
2023/04/04 10:08:40;;;;;;;7.50;4.00;;;;;;;5.12;59.75;97599.16;108734;1253;94433;-74
2023/04/04 10:11:08;;;;;;;7.50;4.60;;;;;;;5.15;57.40;97597.73;108772;1252;94407;-72
2023/04/04 10:13:39;;;;;;;9.00;4.70;;;;;;;4.98;57.39;97597.04;108774;1252;102779;-73
2023/04/04 10:16:09;;;;;;;8.50;5.40;;;;;;;4.89;57.63;97600.77;108396;1252;100679;-72
2023/04/04 10:18:37;;;;;;;8.60;4.90;;;;;;;4.83;57.50;97605.70;108739;1252;100012;-73
2023/04/04 10:21:07;;;;;;;8.90;6.00;;;;;;;4.43;56.33;97605.95;108674;1251;94526;-72
2023/04/04 10:23:37;;;;;;;8.80;5.60;;;;;;;4.07;57.02;97604.48;108657;1253;94362;-72
2023/04/04 10:26:05;;;;;;;9.60;5.60;;;;;;;3.88;57.43;97605.93;108843;1252;101287;-72
2023/04/04 10:28:33;;;;;;;8.90;5.50;;;;;;;3.77;57.89;97602.00;108799;1252;101396;-72
2023/04/04 10:31:23;;;;;;;10.80;6.30;;;;;;;3.73;58.15;97602.89;108768;1252;99129;-72
2023/04/04 10:34:03;;;;;;;9.10;5.70;;;;;;;3.64;58.00;97599.27;108769;1251;94192;-72
2023/04/04 10:36:44;;;;;;;7.20;4.90;;;;;;;3.48;57.93;97596.92;108841;1252;95090;-71
2023/04/04 10:39:23;;;;;;;12.40;5.70;;;;;;;3.40;58.42;97594.73;108816;1253;102047;-72
2023/04/04 10:41:53;;;;;;;10.50;5.90;;;;;;;3.37;58.41;97598.27;108740;1252;101048;-73
2023/04/04 10:44:37;;;;;;;10.10;5.20;;;;;;;3.34;57.94;97597.52;108745;1252;99865;-72
2023/04/04 10:47:18;;;;;;;7.80;5.10;;;;;;;3.35;58.24;97593.48;108766;1252;94418;-72
2023/04/04 10:49:47;;;;;;;6.80;4.90;;;;;;;3.39;58.09;97587.74;108803;1252;95009;-73
2023/04/04 10:52:18;;;;;;;10.00;5.70;;;;;;;3.56;58.28;97583.16;108786;1252;102081;-72
2023/04/04 10:54:51;;;;;;;11.90;6.90;;;;;;;3.86;57.92;97583.49;108757;1251;101389;-73
2023/04/04 10:57:19;;;;;;;;;;;;;;;4.19;57.60;97581.14;108755;1252;100150;-72
2023/04/04 11:00:09;;;;;;;11.10;6.20;;;;;;;4.60;58.01;97580.53;108699;1252;94273;-72
2023/04/04 11:02:53;;;;;;;8.90;5.70;;;;;;;4.93;57.41;97577.92;108772;1252;95360;-70
2023/04/04 11:05:25;;;;;;;6.00;4.30;;;;;;;4.99;56.06;97575.16;108750;1252;102319;-71
2023/04/04 11:07:58;;;;;;;;;;;;;;;5.02;56.08;97571.61;108671;1252;100752;-72
2023/04/04 11:10:35;;;;;;;6.90;4.10;;;;;;;5.00;55.94;97570.67;108640;1252;99833;-71
2023/04/04 11:13:12;;;;;;;9.30;5.10;;;;;;;4.75;55.19;97578.70;108592;1254;94275;-72
2023/04/04 11:15:52;;;;;;;7.70;3.80;;;;;;;4.41;55.14;97580.55;108633;1255;94350;-72
2023/04/04 11:18:22;;;;;;;7.00;4.00;;;;;;;4.42;55.25;97579.93;108578;1256;102380;-72
2023/04/04 11:20:50;;;;;;;5.30;4.30;;;;;;;4.55;54.79;97579.58;108586;1256;100471;-71
2023/04/04 11:23:21;;;;;;;5.70;4.70;;;;;;;4.62;54.08;97584.61;108512;1255;100144;-70
2023/04/04 11:25:51;;;;;;;6.20;4.70;;;;;;;4.46;54.12;97585.56;108312;1256;94215;-71